Time;durP1;ratioP1;P1;durP2;ratioP2;P2;SDS_P1;SDS_P2;PMS_P1;PMS_P2;Temp;Humidity;BMP_temperature;BMP_pressure;BME280_temperature;BME280_humidity;BME280_pressure;Samples;Min_cycle;Max_cycle;Signal;HPM_P1;HPM_P2
2022/04/28 00:02:19;;;;;;;11.35;6.18;;;8.30;99.90;;;;;;12505648;28;20050;-38
2022/04/28 00:08:22;;;;;;;11.15;6.50;;;8.10;99.90;;;;;;12506339;28;20053;-37
2022/04/28 00:14:24;;;;;;;11.00;6.43;;;8.20;99.90;;;;;;12503040;28;20050;-37
2022/04/28 00:20:26;;;;;;;11.88;7.00;;;7.90;99.90;;;;;;12498928;28;20052;-37
2022/04/28 00:26:28;;;;;;;15.18;7.45;;;7.80;99.90;;;;;;12495345;28;20098;-38
2022/04/28 00:32:32;;;;;;;12.98;7.10;;;7.80;99.90;;;;;;12497843;28;20045;-37
2022/04/28 00:38:34;;;;;;;13.63;7.53;;;7.60;99.90;;;;;;12500880;28;20136;-38
2022/04/28 00:44:36;;;;;;;15.02;7.18;;;7.60;99.90;;;;;;12506596;28;20056;-39
2022/04/28 00:50:39;;;;;;;11.05;6.63;;;7.60;99.90;;;;;;12498553;28;20045;-39
2022/04/28 00:56:42;;;;;;;15.13;7.55;;;7.50;99.90;;;;;;12495812;28;20049;-38
2022/04/28 01:02:44;;;;;;;13.25;6.75;;;7.40;99.90;;;;;;12500671;28;20562;-37
2022/04/28 01:08:48;;;;;;;14.75;7.03;;;7.30;99.90;;;;;;12502317;28;20045;-38
2022/04/28 01:14:50;;;;;;;14.85;6.75;;;7.40;99.90;;;;;;12500913;28;20094;-37
2022/04/28 01:20:53;;;;;;;14.85;6.82;;;7.30;99.90;;;;;;12496916;28;20478;-36
2022/04/28 01:26:58;;;;;;;13.95;6.25;;;7.20;99.90;;;;;;12499752;28;20064;-38
2022/04/28 01:33:00;;;;;;;16.70;7.28;;;7.30;99.90;;;;;;12504147;28;20135;-39
2022/04/28 01:39:06;;;;;;;16.38;7.78;;;7.20;99.90;;;;;;12498204;28;20122;-38
2022/04/28 01:45:09;;;;;;;10.20;6.13;;;7.30;99.90;;;;;;12496761;28;20561;-37
2022/04/28 01:57:33;;;;;;;13.38;6.40;;;7.20;99.90;;;;;;12500602;28;20806;-38
2022/04/28 02:03:35;;;;;;;15.35;7.30;;;7.20;99.90;;;;;;12499493;28;20049;-38
2022/04/28 02:09:37;;;;;;;14.15;5.72;;;7.10;99.90;;;;;;12496615;28;20076;-37
2022/04/28 02:15:39;;;;;;;12.40;5.78;;;7.20;99.90;;;;;;12497237;28;20042;-38
2022/04/28 02:21:41;;;;;;;13.40;7.10;;;7.30;99.90;;;;;;12500817;28;20056;-38
2022/04/28 02:27:43;;;;;;;12.45;6.80;;;7.30;99.90;;;;;;12500856;28;20049;-38
2022/04/28 02:33:45;;;;;;;16.25;6.10;;;7.30;99.90;;;;;;12497184;28;20045;-38
2022/04/28 02:39:47;;;;;;;15.13;6.88;;;7.20;99.90;;;;;;12496139;28;20053;-38
2022/04/28 02:45:50;;;;;;;14.82;5.90;;;7.20;99.90;;;;;;12499882;28;20040;-38
2022/04/28 02:51:54;;;;;;;11.38;5.60;;;7.10;99.90;;;;;;12496040;28;20049;-38
2022/04/28 02:57:56;;;;;;;13.15;5.97;;;7.10;99.90;;;;;;12490725;28;20126;-38
2022/04/28 03:04:02;;;;;;;17.15;5.90;;;7.10;99.90;;;;;;12501143;28;20088;-37
2022/04/28 03:16:28;;;;;;;11.55;6.28;;;6.60;99.90;;;;;;12505484;28;20471;-36
2022/04/28 03:22:31;;;;;;;11.57;5.82;;;6.70;99.90;;;;;;12504613;28;20056;-38
2022/04/28 03:28:38;;;;;;;12.25;5.78;;;6.50;99.90;;;;;;12507720;28;20064;-38
2022/04/28 03:34:40;;;;;;;12.90;6.00;;;6.30;99.90;;;;;;12501479;28;20045;-38
2022/04/28 03:40:43;;;;;;;13.15;5.90;;;6.50;99.90;;;;;;12507467;28;20073;-38
2022/04/28 03:46:45;;;;;;;13.07;6.18;;;6.30;99.90;;;;;;12506639;28;20052;-38
2022/04/28 03:52:47;;;;;;;14.48;5.72;;;6.20;99.90;;;;;;12502010;28;20088;-38
2022/04/28 03:58:49;;;;;;;10.45;5.88;;;6.20;99.90;;;;;;12506762;28;20045;-37
2022/04/28 04:04:52;;;;;;;10.20;5.88;;;6.20;99.90;;;;;;12501138;28;20478;-36
2022/04/28 04:10:55;;;;;;;15.70;6.72;;;6.20;99.90;;;;;;12498444;28;20045;-38
2022/04/28 04:16:57;;;;;;;12.38;6.57;;;6.20;99.90;;;;;;12497071;28;20049;-38
2022/04/28 04:23:01;;;;;;;11.50;6.40;;;6.10;99.90;;;;;;12503388;28;20052;-37
2022/04/28 04:29:03;;;;;;;12.02;6.50;;;6.00;99.90;;;;;;12502389;28;20135;-38
2022/04/28 04:35:05;;;;;;;14.32;6.40;;;6.20;99.90;;;;;;12501297;28;20675;-36
2022/04/28 04:41:11;;;;;;;13.80;6.32;;;6.30;99.90;;;;;;12503578;28;20084;-36
2022/04/28 04:47:13;;;;;;;11.88;6.43;;;6.40;99.90;;;;;;12502363;28;20087;-38
2022/04/28 04:53:16;;;;;;;12.15;6.55;;;6.50;99.90;;;;;;12499111;28;20052;-38
2022/04/28 04:59:18;;;;;;;9.82;6.78;;;6.70;99.90;;;;;;12499355;28;20127;-38
2022/04/28 05:05:19;;;;;;;12.88;6.88;;;6.80;99.90;;;;;;12503802;28;20145;-39
2022/04/28 05:11:22;;;;;;;13.38;6.82;;;7.10;99.90;;;;;;12495718;28;20064;-36
2022/04/28 05:17:24;;;;;;;15.80;6.60;;;7.60;99.90;;;;;;12501440;28;20041;-37
2022/04/28 05:23:26;;;;;;;18.60;6.55;;;7.90;99.90;;;;;;12497326;28;20049;-36
2022/04/28 05:29:28;;;;;;;13.48;6.60;;;8.30;99.90;;;;;;12499959;28;20053;-38
2022/04/28 05:35:30;;;;;;;12.98;6.53;;;8.60;99.90;;;;;;12493466;28;20053;-38
2022/04/28 05:41:34;;;;;;;13.55;5.70;;;8.90;99.90;;;;;;12498847;28;20084;-37
2022/04/28 05:47:36;;;;;;;12.73;5.87;;;9.70;99.90;;;;;;12503389;28;20156;-37
2022/04/28 05:53:39;;;;;;;9.65;5.38;;;10.20;99.90;;;;;;12498257;28;20045;-37
2022/04/28 05:59:41;;;;;;;7.97;4.60;;;10.20;99.90;;;;;;12501073;28;20132;-38
2022/04/28 06:05:43;;;;;;;15.48;5.28;;;10.20;99.90;;;;;;12499775;28;20064;-38
2022/04/28 06:11:45;;;;;;;14.23;4.78;;;10.00;99.90;;;;;;12498722;28;20085;-38
2022/04/28 06:17:49;;;;;;;8.75;4.07;;;9.50;99.90;;;;;;12448895;28;20069;-37
2022/04/28 06:23:51;;;;;;;10.15;5.60;;;9.50;99.90;;;;;;12451369;28;20088;-37
2022/04/28 06:29:53;;;;;;;15.27;4.57;;;9.70;99.90;;;;;;12454296;28;20125;-40
2022/04/28 06:35:56;;;;;;;10.73;4.68;;;10.00;99.90;;;;;;12456396;28;20494;-38
2022/04/28 06:41:58;;;;;;;11.88;5.32;;;10.20;99.90;;;;;;12447344;28;20046;-38
2022/04/28 06:48:01;;;;;;;12.80;4.35;;;10.20;99.90;;;;;;12447983;28;20743;-37
2022/04/28 06:54:03;;;;;;;9.60;3.88;;;10.00;99.90;;;;;;12457189;28;20041;-39
2022/04/28 07:00:07;;;;;;;11.88;4.97;;;9.90;99.90;;;;;;12461652;28;20474;-38
2022/04/28 07:06:09;;;;;;;15.02;5.93;;;9.80;99.90;;;;;;12453846;28;20530;-37
2022/04/28 07:12:12;;;;;;;11.98;5.95;;;10.10;99.90;;;;;;12449532;28;20061;-39
2022/04/28 07:18:15;;;;;;;16.27;6.38;;;9.70;99.90;;;;;;12464392;28;20046;-37
2022/04/28 07:24:18;;;;;;;13.37;5.80;;;9.60;99.90;;;;;;12455201;28;20065;-37
2022/04/28 07:30:20;;;;;;;13.20;5.88;;;9.70;99.90;;;;;;12452414;28;20052;-37
2022/04/28 07:36:22;;;;;;;14.00;5.63;;;9.90;99.90;;;;;;12450092;28;20060;-37
2022/04/28 07:42:24;;;;;;;16.45;6.32;;;10.20;99.90;;;;;;12450949;28;20054;-37
2022/04/28 07:48:26;;;;;;;13.43;5.28;;;10.30;99.90;;;;;;12456756;28;20046;-38
2022/04/28 07:54:28;;;;;;;14.88;5.38;;;10.50;99.90;;;;;;12454046;28;20092;-37
2022/04/28 08:00:30;;;;;;;18.35;5.22;;;10.40;99.90;;;;;;12448076;28;20099;-38
2022/04/28 08:06:32;;;;;;;14.40;4.60;;;10.50;99.90;;;;;;12455216;28;20069;-37
2022/04/28 08:12:34;;;;;;;11.98;4.53;;;10.60;99.90;;;;;;12455658;28;20064;-38
2022/04/28 08:18:52;;;;;;;10.60;5.13;;;10.60;99.90;;;;;;12454461;28;20060;-39
2022/04/28 08:24:54;;;;;;;12.73;5.10;;;10.40;99.90;;;;;;12452798;28;20129;-37
2022/04/28 08:30:56;;;;;;;10.27;4.25;;;10.70;99.90;;;;;;12443961;28;20099;-37
2022/04/28 08:36:58;;;;;;;12.38;4.80;;;10.80;99.90;;;;;;12449566;28;20057;-37
2022/04/28 08:43:05;;;;;;;13.38;5.80;;;11.00;99.90;;;;;;12447058;28;20049;-38
2022/04/28 08:49:10;;;;;;;10.32;5.18;;;11.20;99.90;;;;;;12448436;28;20369;-37
2022/04/28 08:55:17;;;;;;;11.38;5.47;;;11.10;99.90;;;;;;12451923;28;20502;-37
2022/04/28 09:01:27;;;;;;;17.80;5.82;;;11.20;99.90;;;;;;12444374;28;20045;-38
2022/04/28 09:07:40;;;;;;;14.48;5.70;;;11.30;99.90;;;;;;12446787;28;20070;-37
2022/04/28 09:14:09;;;;;;;15.70;6.22;;;11.50;99.90;;;;;;12446769;28;20046;-38
2022/04/28 09:20:16;;;;;;;14.30;5.97;;;11.30;99.90;;;;;;12447178;28;20049;-37
2022/04/28 09:26:22;;;;;;;13.07;6.70;;;11.50;99.90;;;;;;12447386;28;20053;-38
2022/04/28 09:32:25;;;;;;;12.70;6.50;;;11.40;99.90;;;;;;12446364;28;20061;-37
2022/04/28 09:38:53;;;;;;;18.15;6.82;;;11.80;99.90;;;;;;12448825;28;20050;-37
2022/04/28 09:45:00;;;;;;;17.23;6.53;;;11.70;99.90;;;;;;12448255;28;20133;-39
2022/04/28 09:51:13;;;;;;;12.88;6.38;;;12.10;99.90;;;;;;12442366;28;20057;-39
2022/04/28 09:57:17;;;;;;;15.18;6.38;;;12.30;99.90;;;;;;12451901;28;20049;-39
2022/04/28 10:03:22;;;;;;;13.43;6.95;;;12.90;99.90;;;;;;12449411;28;20096;-37
2022/04/28 10:09:25;;;;;;;12.68;6.57;;;13.20;99.90;;;;;;12449554;28;20115;-37
2022/04/28 10:15:32;;;;;;;13.13;6.95;;;13.10;99.90;;;;;;12449465;28;20579;-37
2022/04/28 10:21:42;;;;;;;13.00;6.72;;;12.60;99.90;;;;;;12452754;28;20052;-38
2022/04/28 10:34:17;;;;;;;14.45;7.65;;;13.80;99.90;;;;;;12448951;28;20053;-38
2022/04/28 10:40:22;;;;;;;14.35;7.40;;;13.50;99.90;;;;;;12441596;28;20046;-39
2022/04/28 10:46:27;;;;;;;17.48;8.07;;;13.00;99.90;;;;;;12443040;28;20053;-37
2022/04/28 10:52:34;;;;;;;13.27;7.75;;;13.40;99.90;;;;;;12444647;28;20054;-40
2022/04/28 10:58:37;;;;;;;17.42;7.72;;;13.90;99.90;;;;;;12441538;28;20081;-38
2022/04/28 11:04:41;;;;;;;14.07;6.63;;;13.90;99.90;;;;;;12443006;28;20061;-37
2022/04/28 11:11:09;;;;;;;12.57;7.28;;;14.10;99.90;;;;;;12441996;28;20049;-37
2022/04/28 11:17:21;;;;;;;14.73;7.30;;;14.80;99.90;;;;;;12440070;28;20422;-37
2022/04/28 11:23:23;;;;;;;15.73;8.07;;;15.10;99.90;;;;;;12444734;28;20051;-38
2022/04/28 11:29:26;;;;;;;15.88;7.13;;;14.70;99.90;;;;;;12446664;28;20421;-39
2022/04/28 11:35:39;;;;;;;16.15;7.32;;;14.80;99.90;;;;;;12451391;28;20054;-39
2022/04/28 11:41:43;;;;;;;13.30;7.85;;;15.10;99.90;;;;;;12452773;28;20049;-38
2022/04/28 11:47:46;;;;;;;15.90;7.13;;;15.00;99.90;;;;;;12453457;28;20046;-39
2022/04/28 11:53:48;;;;;;;11.00;7.10;;;14.90;99.90;;;;;;12455447;28;20050;-38
2022/04/28 11:59:51;;;;;;;16.70;6.80;;;15.20;99.90;;;;;;12452349;28;20054;-38
2022/04/28 12:05:53;;;;;;;10.50;6.00;;;14.70;99.90;;;;;;12456136;28;20571;-37
2022/04/28 12:24:57;;;;;;;10.80;6.22;;;15.40;99.90;;;;;;12476928;28;20064;-39
2022/04/28 12:31:17;;;;;;;12.77;6.53;;;15.20;99.90;;;;;;12468757;28;20045;-37
2022/04/28 12:38:08;;;;;;;11.13;5.90;;;15.90;99.90;;;;;;12465288;28;20050;-39
2022/04/28 12:44:23;;;;;;;13.85;6.78;;;16.00;99.90;;;;;;12468374;28;20054;-39
2022/04/28 12:50:36;;;;;;;12.98;6.88;;;15.80;99.90;;;;;;12465522;28;20132;-39
2022/04/28 12:56:59;;;;;;;14.88;6.35;;;15.50;99.90;;;;;;12472823;28;20132;-39
2022/04/28 13:03:12;;;;;;;14.13;5.82;;;15.30;99.90;;;;;;12467656;28;20093;-38
2022/04/28 13:09:26;;;;;;;16.02;6.53;;;15.70;99.90;;;;;;12462280;28;20431;-38
2022/04/28 13:15:35;;;;;;;14.07;6.07;;;16.00;99.90;;;;;;12370078;28;20531;-39
2022/04/28 13:21:47;;;;;;;10.70;5.28;;;15.90;99.90;;;;;;12361681;28;20100;-40
2022/04/28 13:28:00;;;;;;;10.88;5.97;;;16.10;99.90;;;;;;12364076;28;20078;-37
2022/04/28 13:34:09;;;;;;;11.25;6.05;;;15.90;99.90;;;;;;12350730;28;20078;-38
2022/04/28 13:40:20;;;;;;;9.20;4.88;;;15.80;99.90;;;;;;12365433;28;20069;-39
2022/04/28 13:46:33;;;;;;;8.95;4.65;;;16.00;99.90;;;;;;12363704;28;20043;-38
2022/04/28 13:52:47;;;;;;;11.65;5.75;;;16.20;99.90;;;;;;12360365;28;20396;-38
2022/04/28 13:59:03;;;;;;;11.70;5.82;;;16.40;99.90;;;;;;12367802;28;20043;-39
2022/04/28 14:05:17;;;;;;;10.40;4.93;;;16.80;99.90;;;;;;12366418;28;20141;-38
2022/04/28 14:11:34;;;;;;;11.68;4.88;;;16.40;99.90;;;;;;12393153;28;20053;-38
2022/04/28 14:17:44;;;;;;;8.07;4.50;;;16.60;99.90;;;;;;12455518;28;20054;-39
2022/04/28 14:23:50;;;;;;;10.35;5.57;;;16.40;99.90;;;;;;12460743;28;20046;-39
2022/04/28 14:29:55;;;;;;;9.65;5.20;;;16.80;99.90;;;;;;12455516;28;20136;-38
2022/04/28 14:36:03;;;;;;;12.68;5.63;;;17.00;99.90;;;;;;12437451;28;20056;-38
2022/04/28 14:42:09;;;;;;;11.90;5.78;;;17.00;99.90;;;;;;12466439;28;20103;-38
2022/04/28 14:48:28;;;;;;;7.57;4.57;;;17.10;99.90;;;;;;12446956;28;20053;-39
2022/04/28 14:54:32;;;;;;;7.80;4.22;;;17.10;99.90;;;;;;12449232;28;20056;-37
2022/04/28 15:00:36;;;;;;;6.22;3.42;;;17.00;99.90;;;;;;12447385;28;20057;-37
2022/04/28 15:06:39;;;;;;;11.23;3.63;;;17.00;99.90;;;;;;12447471;28;20104;-37
2022/04/28 15:12:47;;;;;;;9.20;3.65;;;16.60;99.90;;;;;;12452318;28;20050;-37
2022/04/28 15:18:49;;;;;;;8.45;3.88;;;17.00;99.90;;;;;;12462354;28;21027;-40
2022/04/28 15:24:52;;;;;;;8.25;3.63;;;17.20;99.90;;;;;;12459568;28;20088;-39
2022/04/28 15:30:55;;;;;;;8.25;3.55;;;17.10;99.90;;;;;;12462379;28;20136;-39
2022/04/28 15:37:05;;;;;;;8.45;3.70;;;17.10;99.90;;;;;;12456832;28;20550;-38
2022/04/28 15:43:07;;;;;;;13.27;4.17;;;17.30;99.90;;;;;;12457417;28;20049;-39
2022/04/28 15:49:10;;;;;;;8.73;3.90;;;16.90;99.90;;;;;;12458154;28;20050;-37
2022/04/28 15:55:14;;;;;;;8.55;4.18;;;17.00;99.90;;;;;;12466354;28;20288;-38
2022/04/28 16:01:20;;;;;;;10.18;4.13;;;17.00;99.90;;;;;;12458239;28;20141;-38
2022/04/28 16:07:24;;;;;;;12.95;5.10;;;17.10;99.90;;;;;;12454499;28;20509;-38
2022/04/28 16:13:26;;;;;;;11.35;5.78;;;17.20;99.90;;;;;;12426863;28;20093;-39
2022/04/28 16:19:29;;;;;;;8.70;6.35;;;17.40;99.90;;;;;;12408873;28;20062;-38
2022/04/28 16:25:35;;;;;;;12.82;6.35;;;17.30;99.90;;;;;;12410543;28;20069;-38
2022/04/28 16:31:38;;;;;;;9.18;6.00;;;17.20;99.90;;;;;;12414189;28;20057;-39
2022/04/28 16:37:40;;;;;;;13.30;7.47;;;16.90;99.90;;;;;;12412111;28;20057;-40
2022/04/28 16:43:44;;;;;;;14.85;6.78;;;16.90;99.90;;;;;;12406523;28;20058;-40
2022/04/28 16:49:49;;;;;;;12.50;6.40;;;17.10;99.90;;;;;;12408275;28;20037;-40
2022/04/28 16:55:53;;;;;;;13.20;6.90;;;17.30;99.90;;;;;;12402499;28;20522;-39
2022/04/28 17:01:56;;;;;;;14.07;7.00;;;17.20;99.90;;;;;;12397250;28;20052;-39
2022/04/28 17:08:05;;;;;;;10.90;6.60;;;16.80;99.90;;;;;;12407971;28;20062;-37
2022/04/28 17:14:08;;;;;;;15.93;6.72;;;16.70;99.90;;;;;;12403654;28;20057;-38
2022/04/28 17:20:11;;;;;;;9.10;5.90;;;16.70;99.90;;;;;;12404686;28;20076;-38
2022/04/28 17:26:14;;;;;;;12.60;6.97;;;16.90;99.90;;;;;;12405670;28;20046;-38
2022/04/28 17:32:21;;;;;;;14.83;7.23;;;16.80;99.90;;;;;;12406857;28;20165;-37
2022/04/28 17:38:30;;;;;;;14.15;6.00;;;16.50;99.90;;;;;;12408087;28;20423;-39
2022/04/28 17:44:32;;;;;;;9.17;5.27;;;16.10;99.90;;;;;;12400848;28;20125;-37
2022/04/28 17:50:40;;;;;;;13.70;5.50;;;15.70;99.90;;;;;;12402766;28;20058;-38
2022/04/28 18:03:08;;;;;;;17.35;6.45;;;15.10;99.90;;;;;;12404518;28;20046;-38
2022/04/28 18:09:11;;;;;;;11.68;6.00;;;14.50;99.90;;;;;;12407980;28;20482;-38
2022/04/28 18:15:14;;;;;;;13.55;5.57;;;14.10;99.90;;;;;;12396024;28;20259;-39
2022/04/28 18:21:17;;;;;;;10.40;5.32;;;13.70;99.90;;;;;;12401045;28;20104;-39
2022/04/28 18:27:20;;;;;;;11.43;5.47;;;13.60;99.90;;;;;;12407201;28;20057;-38
2022/04/28 18:33:22;;;;;;;15.00;6.03;;;13.30;99.90;;;;;;12420000;28;20522;-38
2022/04/28 18:45:45;;;;;;;15.20;5.72;;;13.10;99.90;;;;;;12419150;28;20637;-38
2022/04/28 18:51:51;;;;;;;;;;;12.80;99.90;;;;;;12418001;28;20096;-38
2022/04/28 18:57:54;;;;;;;14.70;7.33;;;12.70;99.90;;;;;;12425022;28;19925;-37
2022/04/28 19:03:58;;;;;;;15.48;5.68;;;12.60;99.90;;;;;;12414656;28;20787;-38
2022/04/28 19:10:01;;;;;;;14.35;6.25;;;12.50;99.90;;;;;;12415528;28;20054;-37
2022/04/28 19:16:04;;;;;;;11.90;5.60;;;12.40;99.90;;;;;;12411881;28;20099;-39
2022/04/28 19:22:08;;;;;;;;;;;12.30;99.90;;;;;;12414765;28;20046;-38
2022/04/28 19:28:10;;;;;;;9.35;5.30;;;12.50;99.90;;;;;;12414587;28;20289;-39
2022/04/28 19:34:13;;;;;;;11.40;5.20;;;12.40;99.90;;;;;;12408376;28;20057;-39
2022/04/28 19:40:16;;;;;;;10.23;5.28;;;12.30;99.90;;;;;;12414705;28;20045;-38
2022/04/28 19:46:19;;;;;;;14.97;4.87;;;12.20;99.90;;;;;;12413240;28;20054;-37
2022/04/28 19:52:22;;;;;;;9.05;3.50;;;11.90;99.90;;;;;;12410614;28;20293;-37
2022/04/28 19:58:24;;;;;;;10.82;3.45;;;11.70;99.90;;;;;;12409547;28;20061;-38
2022/04/28 20:04:27;;;;;;;11.05;3.10;;;11.70;99.90;;;;;;12444619;28;20060;-38
2022/04/28 20:10:29;;;;;;;10.00;3.00;;;11.60;99.90;;;;;;12458714;28;20085;-38
2022/04/28 20:16:33;;;;;;;6.60;2.42;;;11.50;99.90;;;;;;12411084;28;20141;-37
2022/04/28 20:22:39;;;;;;;9.38;2.75;;;11.30;99.90;;;;;;12406232;28;20419;-39
2022/04/28 20:28:44;;;;;;;12.63;3.38;;;11.30;99.90;;;;;;12408316;28;20050;-36
2022/04/28 20:34:51;;;;;;;12.10;2.53;;;11.10;99.90;;;;;;12406096;28;20506;-36
2022/04/28 20:40:57;;;;;;;8.35;2.22;;;11.00;99.90;;;;;;12413428;28;20107;-37
2022/04/28 20:47:00;;;;;;;6.90;2.50;;;10.90;99.90;;;;;;12407290;28;20053;-37
2022/04/28 20:53:09;;;;;;;7.10;2.20;;;10.70;99.90;;;;;;12406055;28;20834;-37
2022/04/28 20:59:12;;;;;;;9.48;2.15;;;10.60;99.90;;;;;;12406739;28;20046;-38
2022/04/28 21:05:15;;;;;;;7.27;2.30;;;10.70;99.90;;;;;;12406541;28;20141;-36
2022/04/28 21:11:18;;;;;;;8.82;2.38;;;10.70;99.90;;;;;;12407741;28;20161;-38
2022/04/28 21:17:20;;;;;;;8.43;2.28;;;10.60;99.90;;;;;;12412024;28;20521;-38
2022/04/28 21:23:23;;;;;;;13.90;2.38;;;10.40;99.90;;;;;;12407154;28;20061;-38
2022/04/28 21:29:25;;;;;;;8.63;2.23;;;10.50;99.90;;;;;;12405250;28;20187;-38
2022/04/28 21:35:33;;;;;;;12.55;2.30;;;10.30;99.90;;;;;;12410749;28;20101;-38
2022/04/28 21:41:39;;;;;;;8.75;2.22;;;10.30;99.90;;;;;;12411583;28;20050;-37
2022/04/28 21:47:42;;;;;;;10.52;2.47;;;10.10;99.90;;;;;;12409076;28;20049;-38
2022/04/28 21:53:45;;;;;;;6.13;2.30;;;10.10;99.90;;;;;;12403354;28;20127;-38
2022/04/28 21:59:49;;;;;;;10.02;2.50;;;10.00;99.90;;;;;;12404131;28;20408;-36
2022/04/28 22:12:14;;;;;;;7.55;2.47;;;9.80;99.90;;;;;;12401462;28;20422;-38
2022/04/28 22:18:20;;;;;;;6.30;2.85;;;9.80;99.90;;;;;;12409107;28;20061;-36
2022/04/28 22:24:23;;;;;;;7.60;2.22;;;9.60;99.90;;;;;;12412351;28;20076;-38
2022/04/28 22:30:27;;;;;;;8.18;2.55;;;9.60;99.90;;;;;;12407593;28;20047;-38
2022/04/28 22:36:33;;;;;;;10.15;2.88;;;9.50;99.90;;;;;;12408793;28;20054;-37
2022/04/28 22:42:40;;;;;;;10.63;2.58;;;9.50;99.90;;;;;;12409290;28;20058;-37
2022/04/28 22:48:42;;;;;;;7.80;2.55;;;9.50;99.90;;;;;;12387758;28;20050;-37
2022/04/28 22:54:45;;;;;;;8.82;2.95;;;9.30;99.90;;;;;;12385763;28;20807;-38
2022/04/28 23:00:48;;;;;;;9.93;3.40;;;9.00;99.90;;;;;;12380629;28;20085;-37
2022/04/28 23:06:50;;;;;;;9.45;2.85;;;9.00;99.90;;;;;;12380592;28;20062;-38
2022/04/28 23:12:52;;;;;;;8.93;3.40;;;9.00;99.90;;;;;;12378691;28;20212;-38
2022/04/28 23:18:54;;;;;;;12.88;3.78;;;8.90;99.90;;;;;;12381713;28;20148;-38
2022/04/28 23:24:56;;;;;;;8.95;2.95;;;9.10;99.90;;;;;;12378497;28;20058;-37
2022/04/28 23:30:58;;;;;;;8.77;3.47;;;9.00;99.90;;;;;;12382938;28;20905;-38
2022/04/28 23:43:21;;;;;;;9.88;4.18;;;9.00;99.90;;;;;;12390045;28;20056;-36
2022/04/28 23:49:23;;;;;;;10.57;3.70;;;8.80;99.90;;;;;;12383764;28;20053;-37
2022/04/28 23:55:25;;;;;;;11.25;4.40;;;8.90;99.90;;;;;;12388696;28;20239;-36
